Time;durP1;ratioP1;P1;durP2;ratioP2;P2;SDS_P1;SDS_P2;PMS_P1;PMS_P2;Temp;Humidity;BMP_temperature;BMP_pressure;BME280_temperature;BME280_humidity;BME280_pressure;Samples;Min_cycle;Max_cycle;Signal;HPM_P1;HPM_P2
2021/12/21 00:00:11;;;;;;;16.75;6.10;;;;;;;;;;5123006;27;20063;-78
2021/12/21 00:02:37;;;;;;;19.75;5.88;;;;;;;;;;5130355;27;20109;-78
2021/12/21 00:05:04;;;;;;;17.45;5.60;;;;;;;;;;5117372;27;20047;-78
2021/12/21 00:07:31;;;;;;;11.68;5.60;;;;;;;;;;5110780;27;20495;-78
2021/12/21 00:09:57;;;;;;;15.18;5.57;;;;;;;;;;5137210;27;20090;-78
2021/12/21 00:12:27;;;;;;;20.13;6.35;;;;;;;;;;5115404;27;20433;-78
2021/12/21 00:15:04;;;;;;;14.00;5.85;;;;;;;;;;5121424;27;20059;-78
2021/12/21 00:20:32;;;;;;;16.85;6.75;;;;;;;;;;5143799;27;20091;-78
2021/12/21 00:23:28;;;;;;;15.90;6.50;;;;;;;;;;5125379;27;20047;-78
2021/12/21 00:25:43;;;;;;;22.55;6.90;;;;;;;;;;5142543;27;20051;-78
2021/12/21 00:28:10;;;;;;;17.40;6.40;;;;;;;;;;5114606;27;20048;-78
2021/12/21 00:30:36;;;;;;;15.48;6.05;;;;;;;;;;5114067;27;20052;-78
2021/12/21 00:33:02;;;;;;;20.20;6.50;;;;;;;;;;5106630;27;20052;-78
2021/12/21 00:35:29;;;;;;;18.30;6.53;;;;;;;;;;5109053;27;20101;-78
2021/12/21 00:37:56;;;;;;;15.57;6.03;;;;;;;;;;5099519;27;20060;-78
2021/12/21 00:40:23;;;;;;;17.15;5.90;;;;;;;;;;5121643;27;20112;-78
2021/12/21 00:42:49;;;;;;;19.83;5.90;;;;;;;;;;5098664;27;20058;-78
2021/12/21 00:45:15;;;;;;;14.57;5.70;;;;;;;;;;5101056;27;20572;-78
2021/12/21 00:47:47;;;;;;;22.05;6.47;;;;;;;;;;5118961;27;20097;-78
2021/12/21 00:50:17;;;;;;;16.33;6.40;;;;;;;;;;5099073;28;20056;-78
2021/12/21 00:52:44;;;;;;;13.10;6.40;;;;;;;;;;5116584;27;20600;-78
2021/12/21 00:55:11;;;;;;;22.27;6.80;;;;;;;;;;5123051;27;20056;-78
2021/12/21 00:57:37;;;;;;;15.40;6.57;;;;;;;;;;5098931;28;20106;-78
2021/12/21 01:00:05;;;;;;;17.92;6.45;;;;;;;;;;5102383;27;20059;-78
2021/12/21 01:02:32;;;;;;;17.75;6.57;;;;;;;;;;5127388;27;20101;-78
2021/12/21 01:04:59;;;;;;;14.40;6.18;;;;;;;;;;5101408;27;20056;-78
2021/12/21 01:07:33;;;;;;;17.38;6.60;;;;;;;;;;5122558;27;20078;-78
2021/12/21 01:18:03;;;;;;;17.63;7.00;;;;;;;;;;5092040;27;20109;-78
2021/12/21 01:20:49;;;;;;;19.25;7.25;;;;;;;;;;5097371;28;20105;-78
2021/12/21 01:26:05;;;;;;;20.20;7.75;;;;;;;;;;5120996;27;20179;-78
2021/12/21 01:34:22;;;;;;;21.00;8.07;;;;;;;;;;5116572;27;20517;-79
2021/12/21 01:37:04;;;;;;;16.65;7.10;;;;;;;;;;5129210;27;20497;-79
2021/12/21 01:50:52;;;;;;;16.45;7.63;;;;;;;;;;5119976;27;20056;-78
2021/12/21 01:53:19;;;;;;;23.88;7.53;;;;;;;;;;5099685;27;20044;-79
2021/12/21 01:55:46;;;;;;;22.10;7.43;;;;;;;;;;5113669;27;20113;-79
2021/12/21 01:58:12;;;;;;;17.13;7.68;;;;;;;;;;5109219;27;20530;-79
2021/12/21 02:00:39;;;;;;;17.88;7.60;;;;;;;;;;5116770;27;20036;-79
2021/12/21 02:03:07;;;;;;;20.52;7.53;;;;;;;;;;5100892;27;20584;-79
2021/12/21 02:05:33;;;;;;;22.58;8.40;;;;;;;;;;5106457;27;20059;-79
2021/12/21 02:08:00;;;;;;;18.52;7.68;;;;;;;;;;5106629;27;20062;-79
2021/12/21 02:10:27;;;;;;;20.30;8.13;;;;;;;;;;5112641;27;20052;-79
2021/12/21 02:12:53;;;;;;;20.30;8.45;;;;;;;;;;5116058;27;20056;-78
2021/12/21 02:15:24;;;;;;;19.63;7.63;;;;;;;;;;5125289;27;20628;-79
2021/12/21 02:18:32;;;;;;;19.98;7.57;;;;;;;;;;5116436;27;20051;-79
2021/12/21 02:20:49;;;;;;;18.35;7.97;;;;;;;;;;5107869;27;20064;-79
2021/12/21 02:23:22;;;;;;;20.63;7.90;;;;;;;;;;5108384;27;20741;-79
2021/12/21 02:31:20;;;;;;;17.98;8.32;;;;;;;;;;5086611;27;20202;-79
2021/12/21 02:33:48;;;;;;;17.27;7.30;;;;;;;;;;5110910;27;20060;-79
2021/12/21 02:36:14;;;;;;;18.75;7.55;;;;;;;;;;5113626;27;20095;-79
2021/12/21 02:38:40;;;;;;;22.77;7.68;;;;;;;;;;5115008;27;20064;-79
2021/12/21 02:41:08;;;;;;;19.40;8.50;;;;;;;;;;5103017;27;20052;-79
2021/12/21 02:43:37;;;;;;;21.42;8.38;;;;;;;;;;5116786;27;20056;-79
2021/12/21 02:46:05;;;;;;;20.27;8.32;;;;;;;;;;5123811;27;20047;-78
2021/12/21 02:48:32;;;;;;;19.48;8.15;;;;;;;;;;5110808;27;20113;-79
2021/12/21 02:50:59;;;;;;;26.90;7.55;;;;;;;;;;5104952;27;20048;-79
2021/12/21 02:53:26;;;;;;;19.17;7.70;;;;;;;;;;5092982;27;20512;-78
2021/12/21 02:55:52;;;;;;;18.88;8.25;;;;;;;;;;5123561;27;21020;-79
2021/12/21 02:58:18;;;;;;;16.80;7.40;;;;;;;;;;5106221;27;20055;-79
2021/12/21 03:00:47;;;;;;;16.85;7.18;;;;;;;;;;5126474;27;20055;-79
2021/12/21 03:03:14;;;;;;;20.42;8.32;;;;;;;;;;5113610;27;20044;-79
2021/12/21 03:05:47;;;;;;;21.33;8.15;;;;;;;;;;5110354;27;20159;-79
2021/12/21 03:08:21;;;;;;;20.05;8.57;;;;;;;;;;5089400;28;20060;-79
2021/12/21 03:16:15;;;;;;;23.35;8.23;;;;;;;;;;5118497;27;20048;-79
2021/12/21 03:18:42;;;;;;;18.05;7.28;;;;;;;;;;5098804;27;20541;-79
2021/12/21 03:21:09;;;;;;;16.02;6.35;;;;;;;;;;5099060;27;20101;-79
2021/12/21 03:23:35;;;;;;;22.42;7.28;;;;;;;;;;5117175;27;20059;-79
2021/12/21 03:26:02;;;;;;;15.43;6.80;;;;;;;;;;5113938;27;20101;-79
2021/12/21 03:28:28;;;;;;;17.92;6.65;;;;;;;;;;5096510;28;20065;-79
2021/12/21 03:30:55;;;;;;;18.33;7.63;;;;;;;;;;5106801;27;20584;-79
2021/12/21 03:33:21;;;;;;;15.73;7.28;;;;;;;;;;5114065;27;20056;-79
2021/12/21 03:35:47;;;;;;;17.50;6.47;;;;;;;;;;5117821;27;20062;-79
2021/12/21 03:38:15;;;;;;;21.35;6.93;;;;;;;;;;5100669;27;20059;-79
2021/12/21 03:40:42;;;;;;;17.10;7.18;;;;;;;;;;5117006;27;20056;-79
2021/12/21 03:43:10;;;;;;;13.93;6.47;;;;;;;;;;5106110;27;20047;-79
2021/12/21 03:45:40;;;;;;;17.73;6.97;;;;;;;;;;5115816;27;20048;-79
2021/12/21 03:48:12;;;;;;;18.88;7.70;;;;;;;;;;5097698;28;20125;-79
2021/12/21 03:50:38;;;;;;;18.65;7.57;;;;;;;;;;5116116;27;20406;-79
2021/12/21 03:53:05;;;;;;;17.27;6.80;;;;;;;;;;5124502;27;20566;-79
2021/12/21 03:55:32;;;;;;;15.07;6.55;;;;;;;;;;5117607;27;20169;-79
2021/12/21 03:57:59;;;;;;;15.23;6.65;;;;;;;;;;5113252;27;20506;-79
2021/12/21 04:00:27;;;;;;;18.02;6.88;;;;;;;;;;5124017;27;20848;-79
2021/12/21 04:02:54;;;;;;;15.52;6.47;;;;;;;;;;5094632;27;20048;-79
2021/12/21 04:05:21;;;;;;;16.77;6.43;;;;;;;;;;5126963;27;20062;-79
2021/12/21 04:07:47;;;;;;;15.15;6.28;;;;;;;;;;5127484;27;20109;-79
2021/12/21 04:10:13;;;;;;;16.80;6.60;;;;;;;;;;5123729;27;20047;-79
2021/12/21 04:12:40;;;;;;;19.48;6.72;;;;;;;;;;5112085;27;20359;-79
2021/12/21 04:15:07;;;;;;;20.35;6.95;;;;;;;;;;5111257;27;20056;-79
2021/12/21 04:17:33;;;;;;;15.10;6.13;;;;;;;;;;5103756;27;20113;-79
2021/12/21 04:20:00;;;;;;;15.18;6.50;;;;;;;;;;5112002;27;20726;-79
2021/12/21 04:22:28;;;;;;;18.80;6.80;;;;;;;;;;5117147;27;20052;-79
2021/12/21 04:24:54;;;;;;;23.35;7.55;;;;;;;;;;5126667;27;20052;-79
2021/12/21 04:27:20;;;;;;;16.17;6.32;;;;;;;;;;5107807;28;20579;-79
2021/12/21 04:29:47;;;;;;;14.02;5.97;;;;;;;;;;5110144;27;20109;-79
2021/12/21 04:32:13;;;;;;;15.18;6.28;;;;;;;;;;5105563;27;20110;-79
2021/12/21 04:34:40;;;;;;;12.00;6.22;;;;;;;;;;5107391;27;20055;-79
2021/12/21 04:37:08;;;;;;;16.73;6.38;;;;;;;;;;5122207;27;20499;-79
2021/12/21 04:39:42;;;;;;;15.05;6.28;;;;;;;;;;5112262;27;20522;-79
2021/12/21 04:42:08;;;;;;;17.75;6.47;;;;;;;;;;5098503;27;20055;-79
2021/12/21 04:44:35;;;;;;;16.85;6.25;;;;;;;;;;5104612;28;20129;-79
2021/12/21 04:47:02;;;;;;;13.07;6.32;;;;;;;;;;5125812;27;20032;-79
2021/12/21 04:49:28;;;;;;;17.42;6.90;;;;;;;;;;5121401;27;20075;-79
2021/12/21 04:51:54;;;;;;;18.17;7.25;;;;;;;;;;5111353;27;20517;-79
2021/12/21 04:54:21;;;;;;;18.48;6.93;;;;;;;;;;5123886;27;20059;-79
2021/12/21 04:56:48;;;;;;;19.45;6.95;;;;;;;;;;5112278;27;20055;-79
2021/12/21 04:59:14;;;;;;;17.27;6.97;;;;;;;;;;5104856;28;20101;-79
2021/12/21 05:01:41;;;;;;;18.50;6.60;;;;;;;;;;5121707;27;20056;-79
2021/12/21 05:04:08;;;;;;;19.88;6.85;;;;;;;;;;5116702;27;20067;-79
2021/12/21 05:06:34;;;;;;;14.45;6.45;;;;;;;;;;5101540;27;20101;-79
2021/12/21 05:09:14;;;;;;;19.77;6.82;;;;;;;;;;5109000;27;20164;-79
2021/12/21 05:11:43;;;;;;;24.88;7.97;;;;;;;;;;5098331;27;20056;-80
2021/12/21 05:14:09;;;;;;;22.48;7.85;;;;;;;;;;5130497;27;20105;-80
2021/12/21 05:16:36;;;;;;;20.33;6.95;;;;;;;;;;5108863;27;20061;-79
2021/12/21 05:19:03;;;;;;;18.40;7.32;;;;;;;;;;5105734;27;20052;-79
2021/12/21 05:21:30;;;;;;;26.15;7.80;;;;;;;;;;5123636;27;20467;-80
2021/12/21 05:23:57;;;;;;;16.73;7.10;;;;;;;;;;5095304;27;20059;-79
2021/12/21 05:26:23;;;;;;;17.85;6.85;;;;;;;;;;5116247;27;20810;-80
2021/12/21 05:28:50;;;;;;;20.15;6.72;;;;;;;;;;5110320;27;20052;-79
2021/12/21 05:31:16;;;;;;;17.52;7.75;;;;;;;;;;5118947;27;20055;-80
2021/12/21 05:33:43;;;;;;;13.40;6.70;;;;;;;;;;5113127;27;20044;-80
2021/12/21 05:36:09;;;;;;;18.17;6.55;;;;;;;;;;5119370;27;20051;-79
2021/12/21 05:38:36;;;;;;;18.00;7.22;;;;;;;;;;5109923;27;20472;-83
2021/12/21 05:41:05;;;;;;;18.65;6.78;;;;;;;;;;5103843;27;20056;-79
2021/12/21 05:43:32;;;;;;;17.77;6.97;;;;;;;;;;5107958;28;20056;-79
2021/12/21 05:45:58;;;;;;;21.00;6.72;;;;;;;;;;5098446;27;20128;-79
2021/12/21 05:48:25;;;;;;;17.02;7.07;;;;;;;;;;5106778;27;20056;-79
2021/12/21 05:50:51;;;;;;;22.98;8.00;;;;;;;;;;5121115;27;20754;-79
2021/12/21 05:53:17;;;;;;;21.88;8.55;;;;;;;;;;5118479;27;20051;-79
2021/12/21 05:55:44;;;;;;;20.45;8.50;;;;;;;;;;5122077;27;20427;-79
2021/12/21 05:58:10;;;;;;;22.27;8.32;;;;;;;;;;5130190;27;20051;-79
2021/12/21 06:00:37;;;;;;;25.63;8.10;;;;;;;;;;5132970;27;20052;-80
2021/12/21 06:03:03;;;;;;;24.52;8.65;;;;;;;;;;5107639;27;20070;-80
2021/12/21 06:05:30;;;;;;;23.50;8.73;;;;;;;;;;5106397;27;20054;-80
2021/12/21 06:07:56;;;;;;;64.70;20.45;;;;;;;;;;5114827;27;20087;-80
2021/12/21 06:10:31;;;;;;;72.20;23.35;;;;;;;;;;5114260;27;20109;-81
2021/12/21 06:15:57;;;;;;;80.35;27.00;;;;;;;;;;5128618;27;20449;-80
2021/12/21 06:26:29;;;;;;;60.50;21.20;;;;;;;;;;5128257;27;20048;-80
2021/12/21 06:28:55;;;;;;;51.20;17.55;;;;;;;;;;5124331;27;20056;-80
2021/12/21 06:31:22;;;;;;;53.75;16.50;;;;;;;;;;5100643;27;20051;-80
2021/12/21 06:33:49;;;;;;;47.85;16.05;;;;;;;;;;5119073;27;20064;-80
2021/12/21 06:36:15;;;;;;;47.33;16.42;;;;;;;;;;5102997;27;20043;-80
2021/12/21 06:38:42;;;;;;;52.63;16.17;;;;;;;;;;5111899;27;20521;-80
2021/12/21 06:41:08;;;;;;;48.30;16.75;;;;;;;;;;5125305;27;20101;-80
2021/12/21 06:43:35;;;;;;;56.47;17.08;;;;;;;;;;5112459;27;20055;-80
2021/12/21 06:46:18;;;;;;;49.10;16.15;;;;;;;;;;5110583;27;20051;-80
2021/12/21 06:51:40;;;;;;;39.38;14.10;;;;;;;;;;5124030;27;20596;-80
2021/12/21 06:54:06;;;;;;;28.35;10.95;;;;;;;;;;5120250;27;20048;-80
2021/12/21 06:56:33;;;;;;;28.50;10.85;;;;;;;;;;5123958;27;20108;-80
2021/12/21 06:58:59;;;;;;;24.90;9.52;;;;;;;;;;5106365;27;20048;-80
2021/12/21 07:01:28;;;;;;;25.50;9.15;;;;;;;;;;5105964;27;20051;-80
2021/12/21 07:03:55;;;;;;;24.13;9.43;;;;;;;;;;5103199;27;20062;-80
2021/12/21 07:06:23;;;;;;;24.27;10.50;;;;;;;;;;5111497;27;20078;-80
2021/12/21 07:09:04;;;;;;;28.33;10.35;;;;;;;;;;5109491;27;20470;-80
2021/12/21 07:11:41;;;;;;;23.10;8.90;;;;;;;;;;5109785;27;20579;-80
2021/12/21 07:19:39;;;;;;;23.77;8.23;;;;;;;;;;5118181;27;20142;-80
2021/12/21 07:22:06;;;;;;;27.30;9.18;;;;;;;;;;5110002;27;20058;-80
2021/12/21 07:24:32;;;;;;;23.58;9.00;;;;;;;;;;5102264;28;20179;-80
2021/12/21 07:26:59;;;;;;;17.30;8.60;;;;;;;;;;5109457;27;20113;-80
2021/12/21 07:29:25;;;;;;;21.30;8.48;;;;;;;;;;5111855;27;20087;-79
2021/12/21 07:31:52;;;;;;;19.15;7.57;;;;;;;;;;5119469;27;20048;-80
2021/12/21 07:34:18;;;;;;;24.33;8.23;;;;;;;;;;5101216;27;20074;-80
2021/12/21 07:36:45;;;;;;;15.73;7.05;;;;;;;;;;5104868;27;20062;-80
2021/12/21 07:39:13;;;;;;;17.80;7.03;;;;;;;;;;5113425;27;20055;-80
2021/12/21 07:41:40;;;;;;;23.35;7.50;;;;;;;;;;5099397;27;20124;-80
2021/12/21 07:44:06;;;;;;;16.65;7.10;;;;;;;;;;5114925;27;20136;-79
2021/12/21 07:46:33;;;;;;;17.23;7.18;;;;;;;;;;5099822;27;20063;-79
2021/12/21 07:48:59;;;;;;;15.55;7.00;;;;;;;;;;5124788;27;20079;-79
2021/12/21 07:51:26;;;;;;;21.40;6.85;;;;;;;;;;5131984;27;20543;-79
2021/12/21 07:53:53;;;;;;;16.70;7.68;;;;;;;;;;5110128;27;20056;-80
2021/12/21 07:56:19;;;;;;;18.65;7.55;;;;;;;;;;5121073;27;20502;-79
2021/12/21 07:58:47;;;;;;;18.20;7.22;;;;;;;;;;5129191;27;20059;-79
2021/12/21 08:01:13;;;;;;;20.95;7.30;;;;;;;;;;5112864;27;20117;-79
2021/12/21 08:03:40;;;;;;;16.45;6.70;;;;;;;;;;5110742;27;20516;-79
2021/12/21 08:06:08;;;;;;;17.95;6.35;;;;;;;;;;5110848;27;20060;-79
2021/12/21 08:08:39;;;;;;;18.35;7.30;;;;;;;;;;5111297;27;20060;-79
2021/12/21 08:12:10;;;;;;;14.32;6.40;;;;;;;;;;5108218;27;20051;-79
2021/12/21 08:14:04;;;;;;;19.40;6.65;;;;;;;;;;5132361;27;20052;-79
2021/12/21 08:16:32;;;;;;;17.27;7.25;;;;;;;;;;5122966;27;20079;-79
2021/12/21 08:18:59;;;;;;;21.17;7.03;;;;;;;;;;5105959;27;20059;-79
2021/12/21 08:21:28;;;;;;;15.27;6.93;;;;;;;;;;5259470;22;20319;-79
2021/12/21 08:24:41;;;;;;;20.13;7.80;;;;;;;;;;5098866;27;20064;-79
2021/12/21 08:31:33;;;;;;;23.27;8.23;;;;;;;;;;5120854;22;20041;-79
2021/12/21 08:44:02;;;;;;;19.25;8.52;;;;;;;;;;5017140;28;20115;-79
2021/12/21 08:47:27;;;;;;;;;;;;;;;;;;;;;
2021/12/21 08:54:37;;;;;;;28.23;10.90;;;;;;;;;;5054498;28;20063;-79
2021/12/21 09:01:41;;;;;;;;;;;;;;;;;;;;;
2021/12/21 09:04:50;;;;;;;23.80;10.82;;;;;;;;;;5069410;28;20120;-79
2021/12/21 09:07:54;;;;;;;21.95;9.15;;;;;;;;;;5041170;28;20092;-78
2021/12/21 09:22:29;;;;;;;25.70;9.38;;;;;;;;;;4873198;29;20053;-79
2021/12/21 09:28:46;;;;;;;25.45;10.85;;;;;;;;;;4926281;28;20538;-79
2021/12/21 09:31:35;;;;;;;25.30;12.35;;;;;;;;;;4972705;28;20063;-79
2021/12/21 09:41:30;;;;;;;26.80;11.63;;;;;;;;;;4905776;22;20148;-79
2021/12/21 09:44:13;;;;;;;28.02;11.77;;;;;;;;;;5080003;28;20051;-79
2021/12/21 09:47:08;;;;;;;25.30;11.35;;;;;;;;;;5041998;28;20135;-79
2021/12/21 09:49:35;;;;;;;26.77;10.82;;;;;;;;;;5081716;28;20470;-78
2021/12/21 09:52:02;;;;;;;24.75;11.35;;;;;;;;;;5073620;28;20158;-78
2021/12/21 09:54:30;;;;;;;27.33;11.07;;;;;;;;;;5078351;28;20080;-78
2021/12/21 09:56:56;;;;;;;31.52;12.43;;;;;;;;;;5076729;28;20049;-78
2021/12/21 09:59:23;;;;;;;30.48;11.57;;;;;;;;;;5070630;28;20087;-78
2021/12/21 10:01:49;;;;;;;21.38;11.20;;;;;;;;;;5070129;28;20055;-78
2021/12/21 10:04:17;;;;;;;34.90;12.35;;;;;;;;;;5076607;28;20049;-77
2021/12/21 10:06:47;;;;;;;23.48;11.23;;;;;;;;;;5067748;28;20080;-78
2021/12/21 10:09:14;;;;;;;30.67;12.35;;;;;;;;;;5077247;28;20131;-77
2021/12/21 10:12:00;;;;;;;26.40;12.15;;;;;;;;;;5077792;28;20509;-78
2021/12/21 10:14:27;;;;;;;22.48;13.23;;;;;;;;;;5071826;28;20152;-78
2021/12/21 10:17:01;;;;;;;27.02;12.85;;;;;;;;;;5071926;28;20076;-78
2021/12/21 10:19:30;;;;;;;28.17;12.70;;;;;;;;;;5080330;28;20052;-79
2021/12/21 10:22:06;;;;;;;35.78;14.95;;;;;;;;;;5074531;28;20052;-79
2021/12/21 10:24:33;;;;;;;30.92;14.55;;;;;;;;;;5080684;28;20139;-79
2021/12/21 10:27:08;;;;;;;32.60;15.60;;;;;;;;;;5082765;28;20084;-79
2021/12/21 10:30:04;;;;;;;37.60;14.85;;;;;;;;;;5076512;28;20250;-79
2021/12/21 10:32:31;;;;;;;29.20;14.52;;;;;;;;;;5066502;28;20048;-78
2021/12/21 10:35:01;;;;;;;35.08;14.90;;;;;;;;;;5080531;28;20057;-79
2021/12/21 10:37:29;;;;;;;25.13;13.07;;;;;;;;;;5080004;28;20052;-78
2021/12/21 10:40:02;;;;;;;30.38;13.93;;;;;;;;;;5075762;28;20052;-78
2021/12/21 10:42:28;;;;;;;28.90;14.38;;;;;;;;;;5078625;28;20115;-76
2021/12/21 10:45:03;;;;;;;39.58;15.70;;;;;;;;;;5075766;28;20546;-76
2021/12/21 10:47:32;;;;;;;34.85;16.05;;;;;;;;;;5097405;27;20084;-76
2021/12/21 10:49:59;;;;;;;36.38;18.05;;;;;;;;;;5080028;28;20515;-76
2021/12/21 10:52:25;;;;;;;34.72;16.13;;;;;;;;;;5080551;28;20053;-76
2021/12/21 10:54:52;;;;;;;31.73;15.52;;;;;;;;;;5071798;28;20139;-76
2021/12/21 10:57:23;;;;;;;30.13;15.85;;;;;;;;;;5071764;28;20044;-76
2021/12/21 10:59:53;;;;;;;35.97;17.05;;;;;;;;;;5093397;28;20506;-76
2021/12/21 11:02:26;;;;;;;39.80;18.15;;;;;;;;;;5082162;28;20063;-76
2021/12/21 11:04:56;;;;;;;37.38;18.65;;;;;;;;;;5075785;28;20614;-76
2021/12/21 11:10:03;;;;;;;39.58;18.20;;;;;;;;;;5077699;28;20103;-76
2021/12/21 11:12:40;;;;;;;38.90;18.80;;;;;;;;;;5070982;28;20059;-76
2021/12/21 11:15:08;;;;;;;43.08;20.20;;;;;;;;;;5075783;28;20912;-76
2021/12/21 11:17:34;;;;;;;44.50;18.30;;;;;;;;;;5076540;28;20747;-76
2021/12/21 11:20:01;;;;;;;41.63;18.92;;;;;;;;;;5068242;28;20131;-77
2021/12/21 11:22:28;;;;;;;40.90;17.92;;;;;;;;;;5078332;28;20148;-76
2021/12/21 11:24:55;;;;;;;40.28;18.58;;;;;;;;;;5069413;28;20484;-76
2021/12/21 11:27:22;;;;;;;41.67;18.85;;;;;;;;;;5070502;28;20604;-76
2021/12/21 11:29:50;;;;;;;43.95;19.08;;;;;;;;;;5081550;28;20068;-77
2021/12/21 11:32:17;;;;;;;39.88;19.88;;;;;;;;;;5087885;28;20598;-77
2021/12/21 11:35:08;;;;;;;42.83;20.00;;;;;;;;;;5081729;28;20131;-77
2021/12/21 11:37:31;;;;;;;39.80;19.58;;;;;;;;;;5069580;28;20144;-77
2021/12/21 11:40:01;;;;;;;49.53;22.13;;;;;;;;;;5074395;28;20494;-77
2021/12/21 11:42:33;;;;;;;46.97;21.13;;;;;;;;;;5068098;28;20499;-77
2021/12/21 11:45:07;;;;;;;43.88;20.73;;;;;;;;;;5069992;28;20088;-76
2021/12/21 11:47:53;;;;;;;46.33;20.15;;;;;;;;;;5069007;28;20053;-77
2021/12/21 11:50:20;;;;;;;38.45;19.85;;;;;;;;;;5070063;28;20276;-77
2021/12/21 11:52:47;;;;;;;40.05;18.42;;;;;;;;;;5070373;28;20127;-77
2021/12/21 11:55:14;;;;;;;45.70;19.38;;;;;;;;;;5067818;28;20061;-77
2021/12/21 11:57:45;;;;;;;40.58;19.52;;;;;;;;;;5064087;28;20566;-77
2021/12/21 12:00:12;;;;;;;45.17;18.25;;;;;;;;;;5073814;28;20099;-77
2021/12/21 12:02:39;;;;;;;39.22;18.17;;;;;;;;;;5074357;28;20052;-77
2021/12/21 12:05:21;;;;;;;40.25;17.27;;;;;;;;;;5079546;28;20052;-78
2021/12/21 12:07:57;;;;;;;37.70;17.58;;;;;;;;;;5074124;28;20402;-77
2021/12/21 12:10:24;;;;;;;36.83;17.70;;;;;;;;;;5081575;28;20053;-78
2021/12/21 12:12:50;;;;;;;36.50;16.55;;;;;;;;;;5075526;28;20058;-78
2021/12/21 12:15:17;;;;;;;35.78;17.77;;;;;;;;;;5082341;28;20059;-78
2021/12/21 12:17:48;;;;;;;37.13;17.20;;;;;;;;;;5077919;28;20484;-78
2021/12/21 12:20:15;;;;;;;37.67;17.13;;;;;;;;;;5068500;28;20131;-78
2021/12/21 12:22:43;;;;;;;35.80;16.77;;;;;;;;;;5074240;28;20151;-78
2021/12/21 12:25:17;;;;;;;34.53;17.02;;;;;;;;;;5082498;28;20114;-78
2021/12/21 12:27:45;;;;;;;37.22;17.23;;;;;;;;;;5089524;28;20099;-78
2021/12/21 12:30:13;;;;;;;39.97;17.10;;;;;;;;;;5092198;28;20617;-78
2021/12/21 12:32:42;;;;;;;31.58;16.30;;;;;;;;;;5074353;28;20576;-78
2021/12/21 12:35:14;;;;;;;35.20;16.95;;;;;;;;;;5083758;28;20053;-78
2021/12/21 12:37:50;;;;;;;34.53;16.20;;;;;;;;;;5075891;28;20102;-78
2021/12/21 12:40:18;;;;;;;36.38;17.75;;;;;;;;;;5072129;28;20096;-78
2021/12/21 12:43:08;;;;;;;38.88;16.92;;;;;;;;;;5078640;28;20056;-78
2021/12/21 12:45:35;;;;;;;29.75;14.73;;;;;;;;;;5072224;28;20059;-78
2021/12/21 12:48:02;;;;;;;28.88;14.73;;;;;;;;;;5070680;28;20064;-79
2021/12/21 12:50:30;;;;;;;27.92;14.68;;;;;;;;;;5071048;28;20048;-79
2021/12/21 12:52:57;;;;;;;30.55;14.48;;;;;;;;;;5075405;28;20044;-80
2021/12/21 12:55:26;;;;;;;28.05;14.10;;;;;;;;;;5092289;28;20147;-80
2021/12/21 12:57:54;;;;;;;26.10;14.07;;;;;;;;;;5091468;28;20048;-80
2021/12/21 13:00:22;;;;;;;26.55;13.30;;;;;;;;;;5080361;28;20057;-80
2021/12/21 13:02:53;;;;;;;27.83;13.32;;;;;;;;;;5074485;28;20053;-80
2021/12/21 13:05:23;;;;;;;26.98;12.48;;;;;;;;;;5085878;28;20073;-80
2021/12/21 13:07:49;;;;;;;24.95;12.38;;;;;;;;;;5070529;28;20053;-80
2021/12/21 13:10:15;;;;;;;29.60;13.15;;;;;;;;;;5076098;28;20056;-80
2021/12/21 13:12:42;;;;;;;26.92;13.23;;;;;;;;;;5087601;28;20631;-80
2021/12/21 13:15:08;;;;;;;28.92;13.95;;;;;;;;;;5070998;28;20064;-80
2021/12/21 13:17:35;;;;;;;33.33;14.15;;;;;;;;;;5072256;28;20103;-80
2021/12/21 13:20:02;;;;;;;35.65;14.48;;;;;;;;;;5072154;28;20052;-80
2021/12/21 13:22:29;;;;;;;29.05;14.32;;;;;;;;;;5070878;28;20068;-79
2021/12/21 13:24:56;;;;;;;33.65;15.90;;;;;;;;;;5086889;28;20110;-79
2021/12/21 13:27:27;;;;;;;30.90;14.50;;;;;;;;;;5075483;28;20920;-80
2021/12/21 13:29:53;;;;;;;27.90;14.20;;;;;;;;;;5070245;28;20057;-80
2021/12/21 13:32:21;;;;;;;31.40;14.57;;;;;;;;;;5069368;28;20049;-80
2021/12/21 13:34:49;;;;;;;27.45;15.63;;;;;;;;;;5076334;28;20052;-80
2021/12/21 13:37:19;;;;;;;28.55;14.20;;;;;;;;;;5091205;28;20096;-80
2021/12/21 13:39:47;;;;;;;30.02;15.88;;;;;;;;;;5074313;28;20929;-80
2021/12/21 13:42:18;;;;;;;29.25;14.82;;;;;;;;;;5071499;28;20049;-79
2021/12/21 13:44:45;;;;;;;26.27;13.40;;;;;;;;;;5073729;28;20037;-80
2021/12/21 13:47:19;;;;;;;24.38;12.38;;;;;;;;;;5091116;28;20489;-80
2021/12/21 13:49:50;;;;;;;30.45;13.30;;;;;;;;;;5092293;28;20059;-80
2021/12/21 13:52:18;;;;;;;26.23;13.02;;;;;;;;;;5092548;28;20084;-80
2021/12/21 13:54:44;;;;;;;29.35;12.25;;;;;;;;;;5079128;28;20061;-79
2021/12/21 13:57:14;;;;;;;27.45;12.38;;;;;;;;;;5070744;28;20091;-80
2021/12/21 13:59:40;;;;;;;24.52;11.95;;;;;;;;;;5078714;28;20652;-79
2021/12/21 14:02:08;;;;;;;27.85;12.63;;;;;;;;;;5075051;28;20103;-79
2021/12/21 14:04:47;;;;;;;24.92;11.65;;;;;;;;;;5076713;28;20599;-79
2021/12/21 14:07:14;;;;;;;25.45;12.45;;;;;;;;;;5073333;28;20049;-79
2021/12/21 14:09:40;;;;;;;23.60;11.20;;;;;;;;;;5075073;28;20080;-79
2021/12/21 14:12:12;;;;;;;25.73;11.55;;;;;;;;;;5077920;28;20060;-79
2021/12/21 14:14:40;;;;;;;27.80;11.80;;;;;;;;;;5078152;28;20083;-80
2021/12/21 14:17:10;;;;;;;28.98;12.63;;;;;;;;;;5073815;28;20049;-80
2021/12/21 14:19:37;;;;;;;23.42;12.27;;;;;;;;;;5079365;28;20052;-80
2021/12/21 14:22:06;;;;;;;25.10;11.85;;;;;;;;;;5087137;28;20087;-79
2021/12/21 14:24:32;;;;;;;26.95;12.65;;;;;;;;;;5079408;28;20134;-80
2021/12/21 14:27:03;;;;;;;28.27;12.45;;;;;;;;;;5075803;28;20601;-80
2021/12/21 14:29:30;;;;;;;25.30;11.55;;;;;;;;;;5072893;28;20099;-79
2021/12/21 14:32:16;;;;;;;30.63;12.93;;;;;;;;;;5084008;28;20037;-80
2021/12/21 14:34:47;;;;;;;30.63;12.55;;;;;;;;;;5083308;28;20060;-79
2021/12/21 14:37:14;;;;;;;25.10;11.90;;;;;;;;;;5090090;28;20062;-79
2021/12/21 14:39:42;;;;;;;27.80;12.38;;;;;;;;;;5083455;28;20460;-77
2021/12/21 14:42:11;;;;;;;30.73;13.32;;;;;;;;;;5081086;28;20106;-77
2021/12/21 14:44:42;;;;;;;26.90;13.00;;;;;;;;;;5068637;28;20049;-77
2021/12/21 14:47:14;;;;;;;26.90;12.38;;;;;;;;;;5074069;28;20062;-77
2021/12/21 14:49:44;;;;;;;31.85;12.68;;;;;;;;;;5079409;28;20053;-77
2021/12/21 14:52:18;;;;;;;25.88;12.05;;;;;;;;;;5080300;28;20053;-77
2021/12/21 14:54:52;;;;;;;28.10;12.85;;;;;;;;;;5074512;28;20079;-77
2021/12/21 14:57:19;;;;;;;30.25;12.27;;;;;;;;;;5076310;28;20060;-77
2021/12/21 14:59:52;;;;;;;26.80;12.00;;;;;;;;;;5073146;28;20519;-80
2021/12/21 15:02:48;;;;;;;28.63;12.40;;;;;;;;;;5075848;28;20053;-80
2021/12/21 15:05:09;;;;;;;22.65;11.77;;;;;;;;;;5085838;28;20061;-80
2021/12/21 15:07:36;;;;;;;24.08;12.18;;;;;;;;;;5086298;28;20053;-80
2021/12/21 15:10:04;;;;;;;26.75;12.27;;;;;;;;;;5086311;28;20083;-80
2021/12/21 15:12:31;;;;;;;30.25;11.63;;;;;;;;;;5086812;28;20053;-80
2021/12/21 15:14:57;;;;;;;26.60;12.70;;;;;;;;;;5081561;28;20052;-80
2021/12/21 15:17:26;;;;;;;26.23;12.73;;;;;;;;;;5092695;28;20382;-80
2021/12/21 15:19:52;;;;;;;27.15;13.10;;;;;;;;;;5074803;28;20102;-80
2021/12/21 15:22:19;;;;;;;24.20;11.13;;;;;;;;;;5092594;28;20090;-80
2021/12/21 15:24:46;;;;;;;29.30;11.77;;;;;;;;;;5078050;27;20651;-80
2021/12/21 15:27:12;;;;;;;27.55;11.65;;;;;;;;;;5075898;28;20076;-80
2021/12/21 15:29:39;;;;;;;26.17;12.38;;;;;;;;;;5082544;28;20143;-80
2021/12/21 15:32:09;;;;;;;25.05;11.75;;;;;;;;;;5080113;28;20133;-80
2021/12/21 15:34:35;;;;;;;28.73;12.10;;;;;;;;;;5083408;28;20127;-80
2021/12/21 15:37:02;;;;;;;27.38;11.90;;;;;;;;;;5076688;28;20057;-80
2021/12/21 15:39:28;;;;;;;29.23;13.15;;;;;;;;;;5072772;28;20053;-80
2021/12/21 15:41:56;;;;;;;28.83;12.98;;;;;;;;;;5077831;28;20060;-80
2021/12/21 15:44:28;;;;;;;28.75;13.25;;;;;;;;;;5074598;28;20057;-80
2021/12/21 15:46:55;;;;;;;28.25;13.30;;;;;;;;;;5082206;28;20483;-80
2021/12/21 15:49:22;;;;;;;26.38;13.02;;;;;;;;;;5074796;28;20063;-80
2021/12/21 15:51:49;;;;;;;33.58;13.10;;;;;;;;;;5081569;28;20490;-80
2021/12/21 15:54:15;;;;;;;30.80;12.38;;;;;;;;;;5079993;28;20056;-80
2021/12/21 15:56:42;;;;;;;34.15;13.00;;;;;;;;;;5080399;28;20053;-79
2021/12/21 15:59:08;;;;;;;28.67;13.32;;;;;;;;;;5083337;28;20094;-80
2021/12/21 16:01:35;;;;;;;31.27;13.50;;;;;;;;;;5085457;28;20087;-80
2021/12/21 16:04:03;;;;;;;33.10;13.27;;;;;;;;;;5082586;28;20049;-80
2021/12/21 16:06:30;;;;;;;27.77;13.07;;;;;;;;;;5086403;28;20514;-80
2021/12/21 16:08:59;;;;;;;29.35;13.73;;;;;;;;;;5078473;28;20053;-80
2021/12/21 16:11:26;;;;;;;29.40;13.20;;;;;;;;;;5094307;28;20057;-82
2021/12/21 16:13:54;;;;;;;28.95;13.65;;;;;;;;;;5083296;28;20056;-81
2021/12/21 16:16:24;;;;;;;38.28;14.45;;;;;;;;;;5073575;28;20052;-81
2021/12/21 16:19:00;;;;;;;31.08;13.20;;;;;;;;;;5082238;28;20052;-81
2021/12/21 16:21:28;;;;;;;30.88;14.52;;;;;;;;;;5081850;28;20053;-81
2021/12/21 16:24:14;;;;;;;27.27;13.13;;;;;;;;;;5085931;28;20533;-82
2021/12/21 16:26:42;;;;;;;35.08;15.82;;;;;;;;;;5094509;28;20130;-81
2021/12/21 16:29:08;;;;;;;47.35;20.25;;;;;;;;;;5101644;28;20106;-81